Latest Weather Observations for Parawa West

IDS60801

Issued at 11:05 am CST Monday 15 September 2014 (issued every 30 minutes, with the page automatically refreshed every 10 minutes)

About weather observations | Map of weather stations | Latest weather observations for SA | Other Formats
Station Details ID: 023875 Name: SECOND VALLEY FOREST AWS Lat: -35.57 Lon: 138.29 Height: 341.0 m
Data from the previous 72 hours. | See also: Recent months at Parawa West
Date/Time
CST
Temp
°C
App
Temp
°C
Dew
Point
Rel
Hum
%
Delta-T
°C
Wind Press
QNH
hPa
Press
MSL
hPa
Rain
since 9 am
mm
Dir
 
Spd
km/h
Gust
km/h
Spd
kts
Gust
kts
15/11:00am 13.2 5.0 10.4 83 1.5 SSW 44 63 24 34 1010.9 1010.9 0.0
15/10:35am 12.8 6.1 10.9 88 1.0 S 37 56 20 30 1010.3 1010.3 0.0
15/10:30am 12.7 5.2 10.8 88 1.0 S 41 57 22 31 1010.0 1010.0 0.0
15/10:00am 11.9 6.1 10.8 93 0.6 S 32 43 17 23 1010.2 1010.2 0.0
15/09:30am 12.1 8.0 11.5 96 0.3 S 24 37 13 20 1010.1 1010.1 0.0
15/09:00am 11.8 7.7 11.5 98 0.2 S 24 39 13 21 1009.6 1009.6 0.0
15/08:30am 12.0 9.2 11.2 95 0.4 SSW 17 30 9 16 1009.4 1009.4 0.0
15/08:00am 11.5 10.3 11.5 100 0.0 SW 9 13 5 7 1009.1 1009.1 0.0
15/07:30am 11.2 10.8 11.2 100 0.0 W 4 7 2 4 1008.7 1008.6 0.0
15/07:00am 11.1 9.8 11.1 100 0.0 WNW 9 15 5 8 1008.5 1008.4 0.0
15/06:30am 11.2 8.7 11.2 100 0.0 NNW 15 24 8 13 1007.9 1007.9 0.0
15/06:00am 11.3 8.5 11.3 100 0.0 NNW 17 32 9 17 1007.6 1007.6 0.0
15/05:30am 11.3 9.2 11.3 100 0.0 NNW 13 22 7 12 1007.9 1007.9 0.0
15/05:00am 11.3 10.4 11.3 100 0.0 N 7 19 4 10 1008.5 1008.4 0.0
15/04:30am 11.1 8.6 10.9 99 0.1 NNW 15 26 8 14 1008.6 1008.5 0.0
15/04:00am 11.0 9.5 10.5 97 0.3 NNW 9 17 5 9 1008.5 1008.4 0.0
15/03:30am 10.9 9.4 10.6 98 0.2 NNW 9 13 5 7 1008.7 1008.6 0.0
15/03:00am 10.6 9.5 10.1 97 0.3 NW 6 11 3 6 1009.1 1009.1 0.0
15/02:30am 10.4 9.7 9.9 97 0.3 NW 4 11 2 6 1009.1 1009.1 0.0
15/02:00am 10.8 9.8 10.3 97 0.3 NW 6 11 3 6 1009.5 1009.5 0.0
15/01:30am 10.9 9.3 10.1 95 0.4 NNW 9 17 5 9 1009.8 1009.8 0.0
15/01:00am 11.3 9.9 10.8 97 0.3 NW 9 20 5 11 1010.2 1010.2 0.0
15/12:30am 11.3 8.8 11.0 98 0.2 NW 15 24 8 13 1010.5 1010.5 0.0
15/12:00am 11.6 8.3 11.0 96 0.3 NW 19 28 10 15 1010.8 1010.8 0.0
 
Date/Time
CST
Temp
°C
App
Temp
°C
Dew
Point
Rel
Hum
%
Delta-T
°C
Wind Press
QNH
hPa
Press
MSL
hPa
Rain
since 9 am
mm
Dir
 
Spd
km/h
Gust
km/h
Spd
kts
Gust
kts
14/11:30pm 12.9 11.5 9.5 80 1.8 W 7 15 4 8 1010.9 1010.9 0.0
14/11:00pm 12.9 10.9 7.1 68 2.9 NE 7 15 4 8 1011.2 1011.1 0.0
14/10:30pm 14.3 10.5 7.4 63 3.5 ENE 17 26 9 14 1011.8 1011.8 0.0
14/10:00pm 14.2 11.5 7.3 63 3.4 NE 11 24 6 13 1012.4 1012.4 0.0
14/09:30pm 14.8 9.6 7.4 61 3.7 ENE 24 35 13 19 1011.9 1011.9 0.0
14/09:00pm 14.5 8.2 7.5 63 3.5 ENE 30 41 16 22 1011.9 1011.9 0.0
14/08:30pm 14.5 7.7 7.8 64 3.4 ENE 33 46 18 25 1011.9 1011.9 0.0
14/08:00pm 13.9 7.8 8.3 69 2.8 ENE 30 41 16 22 1012.2 1012.2 0.0
14/07:30pm 14.1 7.6 8.3 68 3.0 ENE 32 41 17 22 1012.3 1012.3 0.0
14/07:00pm 13.7 8.5 8.7 72 2.6 ENE 26 33 14 18 1012.6 1012.6 0.0
14/06:30pm 13.7 8.8 8.5 71 2.7 E 24 30 13 16 1012.9 1012.9 0.0
14/06:00pm 13.5 8.3 9.0 74 2.3 E 26 35 14 19 1013.2 1013.2 0.0
14/05:30pm 13.7 8.7 9.4 75 2.2 E 26 33 14 18 1013.5 1013.5 0.0
14/05:00pm 13.7 8.3 9.4 75 2.2 E 28 33 15 18 1013.5 1013.5 0.0
14/04:30pm 13.8 9.5 9.5 75 2.2 E 22 30 12 16 1013.7 1013.7 0.0
14/04:00pm 13.8 10.2 10.0 78 2.0 E 19 26 10 14 1014.0 1014.1 0.0
14/03:30pm 13.7 9.9 9.7 77 2.1 E 20 28 11 15 1014.6 1014.6 0.0
14/03:00pm 13.9 9.6 9.5 75 2.3 E 22 26 12 14 1014.9 1014.9 0.0
14/02:30pm 13.8 10.1 9.3 74 2.3 E 19 24 10 13 1015.3 1015.3 0.0
14/02:00pm 13.7 9.4 9.2 74 2.3 ESE 22 30 12 16 1015.8 1015.8 0.0
14/01:30pm 13.4 9.2 9.6 78 2.0 E 22 32 12 17 1016.4 1016.5 0.0
14/01:00pm 12.7 7.8 8.4 75 2.2 SE 24 32 13 17 1017.0 1017.1 0.0
14/12:30pm 13.3 8.5 10.3 82 1.6 SE 26 33 14 18 1017.6 1017.6 0.0
14/12:00pm 14.9 11.6 11.5 80 1.9 SE 20 30 11 16 1017.7 1017.7 0.0
14/11:30am 14.9 12.4 9.7 71 2.7 E 13 19 7 10 1018.4 1018.4 0.0
14/11:00am 14.6 12.3 10.6 77 2.1 E 13 20 7 11 1018.4 1018.4 0.0
14/10:30am 12.6 8.2 8.9 78 1.9 E 22 28 12 15 1018.6 1018.6 0.0
14/10:00am 11.4 8.6 10.1 92 0.7 SE 15 20 8 11 1019.3 1019.4 0.0
14/09:30am 11.0 8.7 10.4 96 0.3 SE 13 19 7 10 1019.6 1019.7 0.0
14/09:00am 10.8 7.6 9.9 94 0.5 SE 17 22 9 12 1019.6 1019.7 0.2
14/08:30am 11.0 8.2 10.1 94 0.5 SE 15 19 8 10 1020.0 1020.1 0.2
14/08:00am 10.0 7.5 9.7 98 0.2 SE 13 17 7 9 1019.7 1019.8 0.2
14/07:30am 9.5 7.3 9.2 98 0.2 ESE 11 17 6 9 1019.2 1019.3 0.2
14/07:00am 9.0 6.7 9.0 100 0.0 E 11 17 6 9 1018.8 1018.8 0.2
14/06:30am 8.6 6.6 8.6 100 0.0 ESE 9 11 5 6 1018.8 1018.8 0.2
14/06:00am 8.6 7.0 8.6 100 0.0 SE 7 11 4 6 1019.1 1019.2 0.2
14/05:30am 8.0 5.8 8.0 100 0.0 SE 9 11 5 6 1019.1 1019.2 0.2
14/05:00am 7.3 5.3 7.3 100 0.0 SE 7 9 4 5 1018.9 1019.0 0.2
14/04:30am 8.0 6.4 8.0 100 0.0 ESE 6 7 3 4 1019.0 1019.1 0.2
14/04:00am 8.4 6.9 8.4 100 0.0 ESE 6 7 3 4 1018.7 1018.7 0.2
14/03:30am 8.7 7.1 8.7 100 0.0 ESE 7 9 4 5 1018.8 1018.8 0.2
14/03:00am 8.7 7.1 8.7 100 0.0 E 7 11 4 6 1019.1 1019.2 0.2
14/02:30am 8.5 6.8 8.5 100 0.0 ESE 7 9 4 5 1019.3 1019.4 0.2
14/02:00am 8.1 6.3 8.1 100 0.0 ESE 7 9 4 5 1019.6 1019.7 0.2
14/01:30am 7.8 5.6 7.7 99 0.0 SE 9 11 5 6 1019.9 1020.0 0.2
14/01:00am 8.1 5.9 7.8 98 0.1 SE 9 11 5 6 1019.9 1020.0 0.2
14/12:30am 7.8 5.5 7.4 97 0.2 SE 9 15 5 8 1020.2 1020.3 0.2
14/12:00am 8.6 6.1 8.2 97 0.2 ESE 11 13 6 7 1020.6 1020.6 0.2
 
Date/Time
CST
Temp
°C
App
Temp
°C
Dew
Point
Rel
Hum
%
Delta-T
°C
Wind Press
QNH
hPa
Press
MSL
hPa
Rain
since 9 am
mm
Dir
 
Spd
km/h
Gust
km/h
Spd
kts
Gust
kts
13/11:30pm 7.4 5.0 6.8 96 0.3 SE 9 13 5 7 1021.0 1021.0 0.2
13/11:00pm 8.0 5.6 7.1 94 0.4 SE 9 9 5 5 1021.5 1021.6 0.2
13/10:30pm 8.2 6.2 7.1 93 0.5 SE 7 11 4 6 1021.4 1021.4 0.2
13/10:00pm 8.9 6.9 7.0 88 0.9 SE 7 11 4 6 1021.6 1021.7 0.2
13/09:30pm 9.2 7.2 7.3 88 0.9 ESE 7 9 4 5 1021.7 1021.8 0.2
13/09:00pm 9.2 7.3 7.6 90 0.8 ESE 7 11 4 6 1021.6 1021.7 0.2
13/08:30pm 9.3 7.5 8.1 92 0.6 ESE 7 11 4 6 1021.6 1021.7 0.2
13/08:00pm 9.1 7.5 7.9 92 0.6 ESE 6 9 3 5 1021.7 1021.8 0.2
13/07:30pm 8.8 6.9 7.6 92 0.6 SSE 7 9 4 5 1021.7 1021.8 0.2
13/07:00pm 9.7 7.8 7.6 87 1.0 SW 7 17 4 9 1021.7 1021.8 0.2
13/06:30pm 11.8 11.1 7.1 73 2.3 CALM 0 2 0 1 1021.2 1021.2 0.2
13/06:00pm 12.0 11.5 7.9 76 2.0 CALM 0 4 0 2 1021.1 1021.1 0.2
13/05:30pm 12.9 11.6 7.8 71 2.5 WNW 4 7 2 4 1021.0 1021.0 0.2
13/05:00pm 15.6 13.5 6.6 55 4.5 WNW 7 11 4 6 1020.6 1020.6 0.2
13/04:30pm 16.3 14.5 7.3 55 4.5 WNW 6 11 3 6 1020.5 1020.5 0.2
13/04:00pm 16.4 14.4 6.2 51 5.1 N 6 7 3 4 1020.4 1020.4 0.2
13/03:30pm 16.4 14.2 6.2 51 5.0 NNW 7 13 4 7 1020.5 1020.5 0.2
13/03:00pm 16.3 14.3 6.4 52 4.9 N 6 9 3 5 1020.8 1020.8 0.2
13/02:30pm 15.8 13.4 6.8 55 4.5 NW 9 17 5 9 1021.2 1021.2 0.2
13/02:00pm 15.6 13.3 5.8 52 4.8 NNW 7 13 4 7 1021.3 1021.3 0.2
13/01:30pm 15.5 13.5 7.0 57 4.2 NNW 7 13 4 7 1021.5 1021.6 0.2
13/01:00pm 15.3 13.3 7.3 59 4.0 NNW 7 15 4 8 1022.0 1022.1 0.2
13/12:30pm 14.1 10.7 6.0 58 3.9 NW 13 19 7 10 1022.4 1022.5 0.0
13/12:00pm 13.6 10.2 6.0 60 3.7 NW 13 20 7 11 1022.8 1022.9 0.0
13/11:30am 13.5 10.4 5.7 59 3.7 NNW 11 17 6 9 1023.1 1023.2 0.0
13/11:00am 13.7 11.2 6.6 62 3.5 NNW 9 17 5 9 1023.0 1023.1 0.0
13/10:30am 13.3 11.0 5.9 61 3.5 NNW 7 13 4 7 1023.2 1023.3 0.0
13/10:00am 12.9 10.7 6.0 63 3.3 NNW 7 15 4 8 1023.7 1023.7 0.0
13/09:30am 12.2 9.5 5.4 63 3.2 NW 9 17 5 9 1024.0 1024.1 0.0
13/09:00am 11.9 9.2 5.5 65 3.0 NW 9 17 5 9 1024.2 1024.3 0.0
13/08:30am 11.2 9.6 6.3 72 2.3 NE 4 6 2 3 1024.4 1024.5 0.0
13/08:00am 10.7 9.8 5.9 72 2.3 CALM 0 2 0 1 1024.3 1024.4 0.0
13/07:30am 9.0 6.5 4.8 75 1.9 NE 7 11 4 6 1024.2 1024.3 0.0
13/07:00am 7.7 5.3 4.5 80 1.4 NE 6 9 3 5 1024.1 1024.2 0.0
13/06:30am 6.7 4.2 4.0 83 1.2 NE 6 11 3 6 1023.8 1023.8 0.0
13/06:00am 7.5 4.5 4.3 80 1.4 NE 9 13 5 7 1023.7 1023.7 0.0
13/05:30am 7.4 4.4 4.2 80 1.4 ENE 9 17 5 9 1023.5 1023.5 0.0
13/05:00am 8.0 4.3 4.4 78 1.6 ENE 13 17 7 9 1023.7 1023.7 0.0
13/04:30am 7.9 4.1 4.1 77 1.7 NE 13 17 7 9 1023.8 1023.8 0.0
13/04:00am 7.8 3.7 4.2 78 1.6 ENE 15 20 8 11 1023.8 1023.8 0.0
13/03:30am 7.5 3.8 4.6 82 1.3 ENE 13 15 7 8 1024.1 1024.2 0.0
13/03:00am 8.0 4.5 5.6 85 1.1 NE 13 17 7 9 1024.4 1024.5 0.0
13/02:30am 7.6 5.1 4.9 83 1.2 NE 7 11 4 6 1024.8 1024.9 0.0
13/02:00am 8.0 4.8 5.1 82 1.3 NE 11 15 6 8 1025.0 1025.1 0.0
13/01:30am 7.5 5.0 4.5 81 1.3 ENE 7 9 4 5 1025.2 1025.3 0.0
13/01:00am 7.2 4.9 4.7 84 1.1 ENE 6 9 3 5 1025.3 1025.4 0.0
13/12:30am 7.8 4.6 5.3 84 1.1 ENE 11 13 6 7 1025.3 1025.4 0.0
13/12:00am 8.3 5.6 5.8 84 1.1 ENE 9 13 5 7 1025.5 1025.6 0.0
 
Date/Time
CST
Temp
°C
App
Temp
°C
Dew
Point
Rel
Hum
%
Delta-T
°C
Wind Press
QNH
hPa
Press
MSL
hPa
Rain
since 9 am
mm
Dir
 
Spd
km/h
Gust
km/h
Spd
kts
Gust
kts
12/11:30pm 8.0 4.9 5.6 85 1.1 ENE 11 13 6 7 1025.5 1025.6 0.0
12/11:00pm 8.5 5.8 5.8 83 1.2 ENE 9 13 5 7 1025.7 1025.8 0.0
12/10:30pm 8.2 4.8 5.8 85 1.1 ENE 13 17 7 9 1025.8 1025.9 0.0
12/10:00pm 7.7 5.4 5.8 88 0.9 E 7 9 4 5 1026.1 1026.2 0.0
12/09:30pm 7.6 4.7 6.4 92 0.6 E 11 13 6 7 1026.0 1026.1 0.0
12/09:00pm 7.8 4.9 6.7 93 0.5 E 11 15 6 8 1026.2 1026.3 0.0
12/08:30pm 7.3 5.3 6.4 94 0.4 ESE 6 7 3 4 1026.3 1026.4 0.0
12/08:00pm 7.4 4.8 6.3 93 0.5 E 9 11 5 6 1026.4 1026.6 0.0
12/07:30pm 7.5 5.3 6.1 91 0.6 ESE 7 9 4 5 1026.2 1026.3 0.0
12/07:00pm 7.8 5.8 6.3 90 0.7 SE 6 7 3 4 1026.1 1026.2 0.0
12/06:30pm 8.1 5.9 6.2 88 0.9 ESE 7 9 4 5 1026.2 1026.3 0.0
12/06:00pm 9.1 7.1 7.2 88 0.9 SSE 7 9 4 5 1026.1 1026.2 0.0
12/05:30pm 9.7 7.7 7.3 85 1.2 SSE 7 9 4 5 1026.0 1026.1 0.0
12/05:00pm 10.5 8.2 7.6 82 1.4 SE 9 13 5 7 1025.8 1025.9 0.0
12/04:30pm 11.4 9.5 6.7 73 2.3 SE 6 9 3 5 1025.6 1025.7 0.0
12/04:00pm 11.1 9.2 6.8 75 2.1 SE 6 9 3 5 1025.6 1025.7 0.0
12/03:30pm 10.9 8.9 7.0 77 1.9 SE 7 11 4 6 1025.7 1025.8 0.0
12/03:00pm 11.4 9.5 7.5 77 1.9 SSE 7 9 4 5 1025.9 1026.0 0.0
12/02:30pm 10.6 9.9 6.9 78 1.8 CALM 0 0 0 0 1026.2 1026.3 0.0
12/02:00pm 10.6 10.0 7.3 80 1.6 CALM 0 0 0 0 1026.3 1026.4 0.0
12/01:30pm 10.3 9.4 7.7 84 1.3 S 2 4 1 2 1026.7 1026.8 0.0
12/01:00pm 10.2 9.2 7.3 82 1.4 S 2 6 1 3 1026.9 1027.0 0.0
12/12:30pm 10.4 8.7 7.5 82 1.4 S 6 7 3 4 1027.2 1027.3 0.0
12/12:00pm 10.5 8.6 7.4 81 1.5 S 7 9 4 5 1027.3 1027.4 0.0
12/11:30am 10.6 8.6 7.3 80 1.6 SSE 7 9 4 5 1027.4 1027.5 0.0

Other Formats:

Comma delimited format used in spreadsheet applications
http://www.bom.gov.au/fwo/IDS60801/IDS60801.94811.axf

JavaScript Object Notation format (JSON) in row-major order
http://www.bom.gov.au/fwo/IDS60801/IDS60801.94811.json